Ocean Celebrity — HOSZ — position and weather

sailwx.info

Track history (hours):
 
Tides and Currents Weather Stations Pressure Air Temp Water Temp Dewpoint Dewpoint Depression Visibility Wind Speed Wind Dir Waves Ship Positions

Ocean Celebrity

Last reported at 2017-Mar-03 06:25 UTC. Time now 2017-Mar-26 15:25 UTC.
Position N 33°07' E 132°05'.
Warning: this ship's position is 23 days out of date.

Length 289 m; draft 7.7 m.

Type: Cargo ship. MMSI: 356712000.

Date/timePositionNaut miles runAvg speedWind from/ knotsBaromVisibWave heightAir tempDewpointWater temp
2017-Mar-03 06:25N 33°07' E 132°05'3612.5
2017-Mar-03 03:31N 33°41' E 132°19'1414.1
2017-Mar-03 02:33N 33°51' E 132°30'10 9.8
2017-Mar-03 01:32N 34°01' E 132°33'1313.3
2017-Mar-03 00:33N 34°10' E 132°22'9 1.7
2017-Mar-02 19:14N 34°13' E 132°32'0 0.0
2017-Mar-02 18:26N 34°13' E 132°32'0 0.0
2017-Mar-02 08:20N 34°13' E 132°32'0 0.0
2017-Mar-02 07:32N 34°13' E 132°32'0 0.0
2017-Mar-02 06:32N 34°13' E 132°32'0 0.0
2017-Mar-02 05:32N 34°13' E 132°32'0 0.0
2017-Mar-02 04:29N 34°13' E 132°32'0 0.0
2017-Mar-02 03:29N 34°13' E 132°32'0 0.0
2017-Mar-01 17:20N 34°13' E 132°32'0 0.0
2017-Mar-01 07:26N 34°13' E 132°32'0 0.0
2017-Mar-01 06:32N 34°13' E 132°32'0 0.0
2017-Mar-01 05:32N 34°13' E 132°32'0 0.0
2017-Mar-01 04:26N 34°13' E 132°32'  
2017-Feb-24 23:33N 34°14' E 132°30'8 6.2
2017-Feb-24 22:18N 34°15' E 132°21'911.2
2017-Feb-24 21:28N 34°06' E 132°24'1011.3
2017-Feb-24 20:33N 34°01' E 132°34'1111.0
2017-Feb-24 19:33N 33°50' E 132°29'1212.1
2017-Feb-24 18:33N 33°41' E 132°20'1212.2
2017-Feb-24 17:33N 33°32' E 132°10'1610.9
2017-Feb-24 16:07N 33°19' E 131°60'6 9.8
2017-Feb-24 15:31N 33°13' E 132°02'6 6.3
2017-Feb-24 14:32N 33°08' E 132°06'  
Track history (hours):
 
Tides and Currents Weather Stations Pressure Air Temp Water Temp Dewpoint Dewpoint Depression Visibility Wind Speed Wind Dir Waves Ship Positions

Ocean Celebrity

Last reported at 2017-Mar-03 06:25 UTC. Time now 2017-Mar-26 15:25 UTC.
Position N 33°07' E 132°05'.
Warning: this ship's position is 23 days out of date.

Length 289 m; draft 7.7 m.

Type: Cargo ship. MMSI: 356712000.

Date/timePositionNaut miles runAvg speedWind from/ knotsBaromVisibWave heightAir tempDewpointWater temp
2017-Mar-03 06:25N 33°07' E 132°05'3612.5
2017-Mar-03 03:31N 33°41' E 132°19'1414.1
2017-Mar-03 02:33N 33°51' E 132°30'10 9.8
2017-Mar-03 01:32N 34°01' E 132°33'1313.3
2017-Mar-03 00:33N 34°10' E 132°22'9 1.7
2017-Mar-02 19:14N 34°13' E 132°32'0 0.0
2017-Mar-02 18:26N 34°13' E 132°32'0 0.0
2017-Mar-02 08:20N 34°13' E 132°32'0 0.0
2017-Mar-02 07:32N 34°13' E 132°32'0 0.0
2017-Mar-02 06:32N 34°13' E 132°32'0 0.0
2017-Mar-02 05:32N 34°13' E 132°32'0 0.0
2017-Mar-02 04:29N 34°13' E 132°32'0 0.0
2017-Mar-02 03:29N 34°13' E 132°32'0 0.0
2017-Mar-01 17:20N 34°13' E 132°32'0 0.0
2017-Mar-01 07:26N 34°13' E 132°32'0 0.0
2017-Mar-01 06:32N 34°13' E 132°32'0 0.0
2017-Mar-01 05:32N 34°13' E 132°32'0 0.0
2017-Mar-01 04:26N 34°13' E 132°32'  
2017-Feb-24 23:33N 34°14' E 132°30'8 6.2
2017-Feb-24 22:18N 34°15' E 132°21'911.2
2017-Feb-24 21:28N 34°06' E 132°24'1011.3
2017-Feb-24 20:33N 34°01' E 132°34'1111.0
2017-Feb-24 19:33N 33°50' E 132°29'1212.1
2017-Feb-24 18:33N 33°41' E 132°20'1212.2
2017-Feb-24 17:33N 33°32' E 132°10'1610.9
2017-Feb-24 16:07N 33°19' E 131°60'6 9.8
2017-Feb-24 15:31N 33°13' E 132°02'6 6.3
2017-Feb-24 14:32N 33°08' E 132°06'  

Dump ship's entire track history